createdAt,value
2022-12-20T00:00:15.236Z,101022.38
2022-12-20T00:04:19.429Z,101015.19
2022-12-20T00:08:22.381Z,101011.81
2022-12-20T00:12:25.783Z,101010.75
2022-12-20T00:16:29.879Z,101014.22
2022-12-20T00:20:34.052Z,101010.56
2022-12-20T00:24:37.144Z,100988.22
2022-12-20T00:28:40.907Z,101001.59
2022-12-20T00:32:44.233Z,100998.38
2022-12-20T00:36:48.473Z,100992.38
2022-12-20T00:41:01.021Z,100981.25
2022-12-20T00:45:04.361Z,100971.81
2022-12-20T00:49:07.484Z,100965.31
2022-12-20T00:53:11.681Z,100968.63
2022-12-20T00:57:14.526Z,100967.31
2022-12-20T01:01:20.918Z,100966.88
2022-12-20T01:05:24.518Z,100969.47
2022-12-20T01:09:28.691Z,100957.78
2022-12-20T01:13:32.402Z,100967.34
2022-12-20T01:17:35.310Z,100957.88
2022-12-20T01:21:39.717Z,100969.63
2022-12-20T01:25:43.809Z,100975.63
2022-12-20T01:29:46.654Z,100987.34
2022-12-20T01:33:51.403Z,100980.50
2022-12-20T01:37:54.389Z,100979.19
2022-12-20T01:41:58.573Z,100977.53
2022-12-20T01:46:01.504Z,100958.50
2022-12-20T01:50:06.415Z,100958.84
2022-12-20T01:54:15.196Z,100966.53
2022-12-20T01:58:21.093Z,100960.88
2022-12-20T02:02:24.935Z,100953.03
2022-12-20T02:06:28.821Z,100948.22
2022-12-20T02:10:47.106Z,100943.13
2022-12-20T02:15:05.404Z,100948.94
2022-12-20T02:19:17.350Z,100951.78
2022-12-20T02:23:59.733Z,100952.94
2022-12-20T02:28:08.879Z,100963.59
2022-12-20T02:32:21.083Z,100966.66
2022-12-20T02:36:25.439Z,100947.88
2022-12-20T02:40:33.513Z,100947.13
2022-12-20T02:44:55.964Z,100939.72
2022-12-20T02:49:04.390Z,100940.66
2022-12-20T02:53:09.032Z,100950.09
2022-12-20T02:57:20.687Z,100945.59
2022-12-20T03:01:29.089Z,100942.56
2022-12-20T03:05:36.596Z,100942.75
2022-12-20T03:09:41.150Z,100946.22
2022-12-20T03:13:44.030Z,100933.69
2022-12-20T03:17:46.946Z,100931.91
2022-12-20T03:21:51.224Z,100925.38
2022-12-20T03:25:54.085Z,100920.88
2022-12-20T03:30:15.713Z,100934.00
2022-12-20T03:34:19.154Z,100941.44
2022-12-20T03:38:23.442Z,100912.72
2022-12-20T03:42:26.202Z,100911.28
2022-12-20T03:46:29.324Z,100911.63
2022-12-20T03:50:32.686Z,100916.81
2022-12-20T03:54:38.576Z,100917.88
2022-12-20T03:58:48.550Z,100915.66
2022-12-20T04:02:52.528Z,100933.38
2022-12-20T04:06:55.533Z,100927.59
2022-12-20T04:11:18.207Z,100920.84
2022-12-20T04:15:26.589Z,100906.06
2022-12-20T04:19:29.980Z,100907.09
2022-12-20T04:23:33.429Z,100893.75
2022-12-20T04:27:37.942Z,100897.91
2022-12-20T04:31:43.394Z,100889.38
2022-12-20T04:35:46.778Z,100876.28
2022-12-20T04:39:49.947Z,100900.00
2022-12-20T04:43:59.219Z,100885.16
2022-12-20T04:48:37.492Z,100878.50
2022-12-20T04:52:50.661Z,100872.00
2022-12-20T04:56:54.218Z,100882.75
2022-12-20T05:01:00.493Z,100870.84
2022-12-20T05:05:10.439Z,100878.50
2022-12-20T05:09:19.836Z,100874.97
2022-12-20T05:13:22.821Z,100879.91
2022-12-20T05:17:27.635Z,100877.19
2022-12-20T05:21:48.117Z,100873.44
2022-12-20T05:26:09.623Z,100869.88
2022-12-20T05:30:15.994Z,100872.75
2022-12-20T05:34:21.383Z,100858.34
2022-12-20T05:38:29.801Z,100855.63
2022-12-20T05:42:33.243Z,100863.53
2022-12-20T05:46:36.227Z,100848.06
2022-12-20T05:50:46.141Z,100861.06
2022-12-20T05:55:02.130Z,100846.28
2022-12-20T05:59:05.439Z,100850.78
2022-12-20T06:03:09.404Z,100845.13
2022-12-20T06:07:14.455Z,100850.66
2022-12-20T06:11:23.097Z,100847.72
2022-12-20T06:15:35.918Z,100850.22
2022-12-20T06:19:40.096Z,100849.72
2022-12-20T06:23:46.466Z,100841.94
2022-12-20T06:27:50.352Z,100843.00
2022-12-20T06:31:54.224Z,100847.72
2022-12-20T06:35:57.106Z,100840.38
2022-12-20T06:40:01.368Z,100847.84
2022-12-20T06:44:05.285Z,100833.19
2022-12-20T06:48:08.766Z,100842.16
2022-12-20T06:52:11.857Z,100836.50
2022-12-20T06:56:27.991Z,100832.09
2022-12-20T07:00:31.094Z,100830.34
2022-12-20T07:04:34.297Z,100828.44
2022-12-20T07:08:37.093Z,100819.81
2022-12-20T07:12:47.423Z,100807.06
2022-12-20T07:16:51.226Z,100814.97
2022-12-20T07:20:54.117Z,100807.19
2022-12-20T07:24:56.910Z,100798.41
2022-12-20T07:29:01.066Z,100797.81
2022-12-20T07:33:03.915Z,100790.50
2022-12-20T07:37:08.541Z,100788.25
2022-12-20T07:41:13.264Z,100785.56
2022-12-20T07:45:17.648Z,100777.97
2022-12-20T07:49:20.476Z,100786.38
2022-12-20T07:53:25.605Z,100789.09
2022-12-20T07:57:33.245Z,100795.09
2022-12-20T08:01:37.648Z,100793.56
2022-12-20T08:05:43.347Z,100784.56
2022-12-20T08:09:47.664Z,100769.56
2022-12-20T08:13:57.286Z,100763.66
2022-12-20T08:18:02.126Z,100749.31
2022-12-20T08:22:05.168Z,100753.22
2022-12-20T08:26:08.310Z,100751.91
2022-12-20T08:30:12.044Z,100770.50
2022-12-20T08:34:16.252Z,100773.53
2022-12-20T08:38:19.054Z,100775.78
2022-12-20T08:42:22.913Z,100770.44
2022-12-20T08:46:25.827Z,100765.91
2022-12-20T08:50:30.217Z,100764.38
2022-12-20T08:54:32.983Z,100750.53
2022-12-20T08:58:35.902Z,100757.38
2022-12-20T09:02:39.147Z,100751.56
2022-12-20T09:06:43.370Z,100764.19
2022-12-20T09:10:46.143Z,100753.47
2022-12-20T09:14:48.904Z,100748.13
2022-12-20T09:18:52.013Z,100752.25
2022-12-20T09:22:56.129Z,100755.41
2022-12-20T09:26:58.906Z,100763.34
2022-12-20T09:31:02.317Z,100759.28
2022-12-20T09:35:05.508Z,100770.53
2022-12-20T09:39:09.900Z,100767.88
2022-12-20T09:43:13.695Z,100775.06
2022-12-20T09:47:21.207Z,100773.50
2022-12-20T09:51:45.255Z,100790.78
2022-12-20T09:55:54.559Z,100791.50
2022-12-20T09:59:58.143Z,100794.38
2022-12-20T10:04:06.791Z,100783.69
2022-12-20T10:08:17.808Z,100781.38
2022-12-20T10:12:34.263Z,100772.22
2022-12-20T10:16:43.075Z,100780.75
2022-12-20T10:20:56.861Z,100763.75
2022-12-20T10:25:02.941Z,100757.03
2022-12-20T10:29:07.625Z,100749.59
2022-12-20T10:33:18.174Z,100751.38
2022-12-20T10:37:20.891Z,100743.22
2022-12-20T10:41:25.407Z,100733.16
2022-12-20T10:45:36.477Z,100724.53
2022-12-20T10:49:41.183Z,100723.00
2022-12-20T10:53:56.374Z,100722.38
2022-12-20T10:58:04.410Z,100730.56
2022-12-20T11:02:26.336Z,100730.81
2022-12-20T11:06:41.336Z,100718.75
2022-12-20T11:10:45.302Z,100714.97
2022-12-20T11:14:49.262Z,100715.19
2022-12-20T11:19:04.301Z,100705.97
2022-12-20T11:23:23.816Z,100702.19
2022-12-20T11:27:34.257Z,100705.00
2022-12-20T11:31:49.569Z,100688.66
2022-12-20T11:36:01.487Z,100686.88
2022-12-20T11:40:17.376Z,100686.41
2022-12-20T11:44:30.343Z,100677.47
2022-12-20T11:48:50.134Z,100681.63
2022-12-20T11:52:59.684Z,100683.84
2022-12-20T11:57:10.940Z,100676.03
2022-12-20T12:01:17.965Z,100665.97
2022-12-20T12:05:25.329Z,100668.44
2022-12-20T12:09:36.346Z,100664.63
2022-12-20T12:13:41.558Z,100662.50
2022-12-20T12:17:49.507Z,100665.47
2022-12-20T12:22:01.577Z,100661.59
2022-12-20T12:26:11.789Z,100662.06
2022-12-20T12:30:15.971Z,100665.31
2022-12-20T12:34:31.408Z,100668.75
2022-12-20T12:39:02.600Z,100659.75
2022-12-20T12:43:24.840Z,100664.84
2022-12-20T12:47:36.359Z,100661.81
2022-12-20T12:51:42.309Z,100658.53
2022-12-20T12:55:47.044Z,100653.91
2022-12-20T12:59:52.538Z,100654.63
2022-12-20T13:04:11.615Z,100658.91
2022-12-20T13:08:18.652Z,100653.97
2022-12-20T13:12:56.261Z,100657.16
2022-12-20T13:21:36.550Z,100642.50
2022-12-20T13:25:41.137Z,100641.06
2022-12-20T13:29:58.957Z,100641.69
2022-12-20T13:34:04.053Z,100635.63
2022-12-20T13:38:46.979Z,100636.13
2022-12-20T13:42:54.927Z,100651.63
2022-12-20T13:47:03.414Z,100646.44
2022-12-20T13:51:08.064Z,100639.56
2022-12-20T13:55:27.815Z,100636.53
2022-12-20T13:59:33.332Z,100635.72
2022-12-20T14:03:42.691Z,100637.13
2022-12-20T14:07:49.026Z,100629.19
2022-12-20T14:11:53.218Z,100643.63
2022-12-20T14:15:57.421Z,100648.25
2022-12-20T14:20:08.162Z,100643.88
2022-12-20T14:24:16.754Z,100649.53
2022-12-20T14:28:31.978Z,100650.59
2022-12-20T14:32:34.760Z,100648.97
2022-12-20T14:36:38.417Z,100648.47
2022-12-20T14:40:42.916Z,100647.31
2022-12-20T14:44:48.308Z,100655.47
2022-12-20T14:49:09.155Z,100643.16
2022-12-20T14:53:20.250Z,100634.19
2022-12-20T14:57:25.738Z,100638.59
2022-12-20T15:01:37.221Z,100627.34
2022-12-20T15:05:47.326Z,100620.72
2022-12-20T15:09:50.167Z,100624.06
2022-12-20T15:13:55.577Z,100621.59
2022-12-20T15:17:59.955Z,100619.44
2022-12-20T15:22:03.105Z,100626.84
2022-12-20T15:26:06.169Z,100627.09
2022-12-20T15:30:13.866Z,100644.03
2022-12-20T15:34:23.439Z,100622.72
2022-12-20T15:38:55.220Z,100612.44
2022-12-20T15:42:50.594Z,100608.66
2022-12-20T15:46:53.822Z,100615.50
2022-12-20T15:50:59.341Z,100606.53
2022-12-20T15:55:02.229Z,100590.47
2022-12-20T15:59:24.520Z,100593.75
2022-12-20T16:03:32.685Z,100600.59
2022-12-20T16:07:37.062Z,100606.53
2022-12-20T16:11:40.602Z,100625.31
2022-12-20T16:15:44.076Z,100627.22
2022-12-20T16:19:47.259Z,100613.25
2022-12-20T16:23:51.991Z,100617.03
2022-12-20T16:27:54.831Z,100609.72
2022-12-20T16:31:57.787Z,100614.94
2022-12-20T16:36:00.642Z,100616.31
2022-12-20T16:40:05.435Z,100627.72
2022-12-20T16:44:13.655Z,100625.81
2022-12-20T16:48:16.423Z,100618.69
2022-12-20T16:52:19.699Z,100621.66
2022-12-20T16:56:24.508Z,100627.34
2022-12-20T17:00:27.986Z,100630.31
2022-12-20T17:04:30.863Z,100625.13
2022-12-20T17:12:56.171Z,100630.56
2022-12-20T17:16:59.829Z,100630.78
2022-12-20T17:21:04.433Z,100638.72
2022-12-20T17:25:07.584Z,100641.44
2022-12-20T17:29:12.035Z,100635.19
2022-12-20T17:33:16.349Z,100628.88
2022-12-20T17:37:19.353Z,100629.75
2022-12-20T17:41:25.205Z,100629.75
2022-12-20T17:45:32.403Z,100631.84
2022-12-20T17:49:35.278Z,100623.94
2022-12-20T17:53:38.026Z,100616.63
2022-12-20T17:57:40.838Z,100622.06
2022-12-20T18:01:45.861Z,100614.16
2022-12-20T18:05:48.800Z,100620.97
2022-12-20T18:09:51.859Z,100614.16
2022-12-20T18:13:58.401Z,100608.47
2022-12-20T18:18:02.604Z,100614.47
2022-12-20T18:22:06.465Z,100601.13
2022-12-20T18:26:12.490Z,100610.13
2022-12-20T18:30:15.589Z,100604.69
2022-12-20T18:34:19.753Z,100614.25
2022-12-20T18:38:23.395Z,100607.38
2022-12-20T18:42:26.192Z,100590.16
2022-12-20T18:46:42.695Z,100594.31
2022-12-20T18:50:46.895Z,100598.66
2022-12-20T18:54:49.753Z,100591.91
2022-12-20T18:58:53.504Z,100594.03
2022-12-20T19:02:59.303Z,100597.84
2022-12-20T19:07:03.555Z,100595.13
2022-12-20T19:11:08.661Z,100602.47
2022-12-20T19:15:11.800Z,100596.66
2022-12-20T19:19:14.668Z,100603.19
2022-12-20T19:23:20.588Z,100593.63
2022-12-20T19:27:23.608Z,100602.94
2022-12-20T19:31:28.810Z,100603.44
2022-12-20T19:35:54.856Z,100601.53
2022-12-20T19:39:55.883Z,100603.69
2022-12-20T19:43:59.127Z,100602.59
2022-12-20T19:48:01.943Z,100616.91
2022-12-20T19:52:05.669Z,100613.13
2022-12-20T19:56:10.904Z,100608.75
2022-12-20T20:00:14.931Z,100612.28
2022-12-20T20:04:17.901Z,100601.66
2022-12-20T20:08:20.681Z,100612.53
2022-12-20T20:12:24.874Z,100609.56
2022-12-20T20:16:27.708Z,100613.13
2022-12-20T20:20:30.489Z,100601.41
2022-12-20T20:24:33.341Z,100613.94
2022-12-20T20:28:44.363Z,100604.63
2022-12-20T20:32:48.259Z,100609.56
2022-12-20T20:36:51.079Z,100605.22
2022-12-20T20:40:54.191Z,100609.56
2022-12-20T20:44:58.431Z,100604.13
2022-12-20T20:49:05.834Z,100608.44
2022-12-20T20:53:08.692Z,100617.41
2022-12-20T20:57:11.458Z,100602.50
2022-12-20T21:01:15.826Z,100607.94
2022-12-20T21:09:41.798Z,100597.31
2022-12-20T21:13:44.647Z,100599.19
2022-12-20T21:17:48.810Z,100604.13
2022-12-20T21:21:51.636Z,100596.00
2022-12-20T21:25:57.375Z,100594.34
2022-12-20T21:30:00.191Z,100598.13
2022-12-20T21:34:04.452Z,100605.72
2022-12-20T21:38:07.216Z,100597.06
2022-12-20T21:42:10.383Z,100587.84
2022-12-20T21:46:13.447Z,100588.34
2022-12-20T21:50:17.821Z,100582.28
2022-12-20T21:54:20.708Z,100587.25
2022-12-20T21:58:23.845Z,100584.88
2022-12-20T22:02:26.730Z,100601.41
2022-12-20T22:06:31.552Z,100596.25
2022-12-20T22:10:34.518Z,100602.25
2022-12-20T22:14:37.308Z,100610.16
2022-12-20T22:18:41.343Z,100607.09
2022-12-20T22:22:45.488Z,100597.06
2022-12-20T22:26:48.245Z,100608.75
2022-12-20T22:30:52.188Z,100612.53
2022-12-20T22:34:55.032Z,100610.91
2022-12-20T22:38:59.568Z,100622.34
2022-12-20T22:43:02.364Z,100613.03
2022-12-20T22:47:06.024Z,100617.41
2022-12-20T22:51:10.710Z,100618.22
2022-12-20T22:55:14.917Z,100613.25
2022-12-20T22:59:17.724Z,100620.13
2022-12-20T23:03:20.672Z,100616.81
2022-12-20T23:07:23.603Z,100619.19
2022-12-20T23:11:46.729Z,100625.69
2022-12-20T23:15:49.773Z,100629.34
2022-12-20T23:20:24.425Z,100627.22
2022-12-20T23:24:27.293Z,100627.78
2022-12-20T23:28:31.510Z,100624.25
2022-12-20T23:32:34.323Z,100620.69
2022-12-20T23:36:37.846Z,100626.13
2022-12-20T23:40:41.391Z,100611.47
2022-12-20T23:44:45.636Z,100622.59
2022-12-20T23:48:48.628Z,100612.53
2022-12-20T23:52:51.387Z,100617.41
2022-12-20T23:56:54.181Z,100616.09
